Time;durP1;ratioP1;P1;durP2;ratioP2;P2;SDS_P1;SDS_P2;PMS_P1;PMS_P2;Temp;Humidity;BMP_temperature;BMP_pressure;BME280_temperature;BME280_humidity;BME280_pressure;Samples;Min_cycle;Max_cycle;Signal;HPM_P1;HPM_P2
2023/11/08 00:02:20;;;;;;;19.15;10.13;;;8.60;99.90;;;;;;4995518;28;20042;-65
2023/11/08 00:04:46;;;;;;;15.80;9.60;;;8.60;99.90;;;;;;4994724;28;20067;-65
2023/11/08 00:07:11;;;;;;;17.95;10.40;;;8.60;99.90;;;;;;4996992;28;20076;-65
2023/11/08 00:09:37;;;;;;;17.98;10.68;;;8.60;99.90;;;;;;4994747;28;20041;-65
2023/11/08 00:12:03;;;;;;;19.10;10.20;;;8.60;99.90;;;;;;4995313;28;20108;-65
2023/11/08 00:14:29;;;;;;;19.00;10.13;;;8.60;99.90;;;;;;4993836;28;20052;-65
2023/11/08 00:16:56;;;;;;;19.20;10.35;;;8.60;99.90;;;;;;4994907;28;20102;-65
2023/11/08 00:19:22;;;;;;;19.00;10.85;;;8.60;99.90;;;;;;4980818;28;20105;-65
2023/11/08 00:21:48;;;;;;;18.58;10.68;;;9.10;99.90;;;;;;4999659;28;20030;-65
2023/11/08 00:24:14;;;;;;;18.23;11.15;;;8.60;99.90;;;;;;4982830;28;20318;-65
2023/11/08 00:26:39;;;;;;;17.92;11.50;;;8.60;99.90;;;;;;4997985;28;20398;-65
2023/11/08 00:29:05;;;;;;;20.83;10.90;;;8.60;99.90;;;;;;4966558;28;20168;-65
2023/11/08 00:31:32;;;;;;;19.23;10.05;;;8.60;99.90;;;;;;5000447;28;20030;-65
2023/11/08 00:33:57;;;;;;;18.20;9.68;;;8.60;99.90;;;;;;5004115;28;20035;-64
2023/11/08 00:36:23;;;;;;;15.65;10.18;;;8.60;99.90;;;;;;4998297;28;20077;-65
2023/11/08 00:38:49;;;;;;;18.48;10.00;;;8.50;99.90;;;;;;4981525;28;20034;-65
2023/11/08 00:41:15;;;;;;;17.55;11.27;;;8.50;99.90;;;;;;5000183;28;20093;-65
2023/11/08 00:43:41;;;;;;;16.63;9.02;;;8.40;99.90;;;;;;4999625;28;20042;-65
2023/11/08 00:46:08;;;;;;;15.63;8.80;;;8.40;99.90;;;;;;4982350;28;20117;-64
2023/11/08 00:48:34;;;;;;;15.80;8.73;;;8.40;99.90;;;;;;4982085;28;20051;-65
2023/11/08 00:51:01;;;;;;;15.50;8.32;;;8.30;99.90;;;;;;5000086;28;20042;-65
2023/11/08 00:53:27;;;;;;;13.40;7.82;;;8.30;99.90;;;;;;4983292;28;20042;-65
2023/11/08 00:55:52;;;;;;;17.05;7.88;;;8.50;99.90;;;;;;4990408;28;20176;-65
2023/11/08 00:58:18;;;;;;;14.75;7.28;;;8.30;99.90;;;;;;4981560;28;20053;-65
2023/11/08 01:00:44;;;;;;;10.63;7.18;;;8.30;99.90;;;;;;4999163;28;20038;-64
2023/11/08 01:03:12;;;;;;;12.18;7.25;;;8.40;99.90;;;;;;5000959;28;20073;-65
2023/11/08 01:05:38;;;;;;;12.35;7.50;;;8.40;99.90;;;;;;4981764;28;20057;-64
2023/11/08 01:08:03;;;;;;;11.60;7.50;;;8.40;99.90;;;;;;4999520;28;20464;-64
2023/11/08 01:10:29;;;;;;;15.45;7.68;;;8.40;99.90;;;;;;4997928;28;20038;-65
2023/11/08 01:12:55;;;;;;;13.65;7.60;;;8.40;99.90;;;;;;4994845;28;20066;-65
2023/11/08 01:15:23;;;;;;;15.20;7.43;;;8.40;99.90;;;;;;4996202;28;20058;-65
2023/11/08 01:17:50;;;;;;;16.70;7.95;;;8.40;99.90;;;;;;4998507;28;20077;-65
2023/11/08 01:20:15;;;;;;;16.08;8.02;;;8.40;99.90;;;;;;4980675;28;20077;-65
2023/11/08 01:22:41;;;;;;;12.60;7.97;;;8.40;99.90;;;;;;4998044;28;20057;-65
2023/11/08 01:25:08;;;;;;;15.85;8.75;;;8.40;99.90;;;;;;4981598;28;20038;-65
2023/11/08 01:27:34;;;;;;;16.38;8.93;;;8.50;99.90;;;;;;4981802;28;20109;-65
2023/11/08 01:30:01;;;;;;;15.05;9.55;;;8.50;99.90;;;;;;4965857;28;20483;-65
2023/11/08 01:32:27;;;;;;;15.45;9.68;;;8.50;99.90;;;;;;5000518;28;20110;-65
2023/11/08 01:34:52;;;;;;;18.23;9.63;;;8.50;99.90;;;;;;4999905;28;20069;-65
2023/11/08 01:37:18;;;;;;;18.45;10.88;;;8.60;99.90;;;;;;5000372;28;20039;-65
2023/11/08 01:39:44;;;;;;;20.55;11.02;;;8.60;99.90;;;;;;4999922;28;20762;-66
2023/11/08 01:42:10;;;;;;;16.70;10.65;;;8.60;99.90;;;;;;4999629;28;20039;-66
2023/11/08 01:44:35;;;;;;;22.98;10.90;;;8.60;99.90;;;;;;4995994;28;20062;-65
2023/11/08 01:47:02;;;;;;;18.85;10.45;;;8.60;99.90;;;;;;4994830;28;20050;-65
2023/11/08 01:49:28;;;;;;;16.67;9.52;;;8.60;99.90;;;;;;4998248;28;20062;-65
2023/11/08 01:51:55;;;;;;;15.95;10.45;;;8.60;99.90;;;;;;4982975;28;20057;-65
2023/11/08 01:54:22;;;;;;;17.85;10.30;;;8.60;99.90;;;;;;4998467;28;20030;-65
2023/11/08 01:56:49;;;;;;;19.08;9.52;;;8.60;99.90;;;;;;4996155;28;20084;-65
2023/11/08 01:59:17;;;;;;;14.15;8.98;;;8.60;99.90;;;;;;4999384;28;20030;-64
2023/11/08 02:01:44;;;;;;;14.10;9.70;;;8.60;99.90;;;;;;4999417;28;20528;-65
2023/11/08 02:04:10;;;;;;;15.40;8.50;;;8.50;99.90;;;;;;4982604;28;20034;-64
2023/11/08 02:06:36;;;;;;;17.55;8.38;;;8.50;99.90;;;;;;4999717;28;20052;-65
2023/11/08 02:09:03;;;;;;;13.73;7.50;;;8.60;99.90;;;;;;4996377;28;20109;-65
2023/11/08 02:11:29;;;;;;;15.27;7.82;;;8.50;99.90;;;;;;4998140;28;20031;-65
2023/11/08 02:13:56;;;;;;;12.52;7.72;;;8.60;99.90;;;;;;4997846;28;20061;-65
2023/11/08 02:16:22;;;;;;;14.45;7.80;;;8.60;99.90;;;;;;4986331;28;20047;-64
2023/11/08 02:18:49;;;;;;;13.27;8.00;;;8.60;99.90;;;;;;4991113;28;20057;-65
2023/11/08 02:21:15;;;;;;;13.57;7.80;;;8.60;99.90;;;;;;4993955;28;20406;-65
2023/11/08 02:23:41;;;;;;;14.60;7.95;;;8.60;99.90;;;;;;4997792;28;20034;-65
2023/11/08 02:26:06;;;;;;;14.73;7.90;;;8.60;99.90;;;;;;4995663;28;20034;-65
2023/11/08 02:28:33;;;;;;;12.70;7.60;;;8.60;99.90;;;;;;4994845;28;20049;-65
2023/11/08 02:30:58;;;;;;;13.73;7.47;;;8.60;99.90;;;;;;4998676;28;20513;-65
2023/11/08 02:33:25;;;;;;;14.05;8.40;;;8.60;99.90;;;;;;4992244;28;20046;-65
2023/11/08 02:35:51;;;;;;;14.77;7.22;;;8.60;99.90;;;;;;4997152;28;20125;-64
2023/11/08 02:38:18;;;;;;;13.77;7.45;;;8.70;99.90;;;;;;4993911;28;20057;-65
2023/11/08 02:40:44;;;;;;;14.57;7.68;;;8.70;99.90;;;;;;4997378;28;20038;-65
2023/11/08 02:43:10;;;;;;;14.98;6.85;;;8.60;99.90;;;;;;4991279;28;20046;-65
2023/11/08 02:45:36;;;;;;;13.65;7.32;;;8.60;99.90;;;;;;4995156;28;20049;-65
2023/11/08 02:48:02;;;;;;;13.48;7.45;;;8.60;99.90;;;;;;4998025;28;20038;-65
2023/11/08 02:50:31;;;;;;;13.90;7.15;;;8.60;99.90;;;;;;4992257;28;20039;-65
2023/11/08 02:52:58;;;;;;;16.35;7.78;;;8.60;99.90;;;;;;4996784;28;20042;-65
2023/11/08 02:55:25;;;;;;;12.57;7.47;;;8.60;99.90;;;;;;4977089;28;20051;-64
2023/11/08 02:57:51;;;;;;;16.15;7.70;;;8.60;99.90;;;;;;4975518;28;20065;-65
2023/11/08 03:00:19;;;;;;;13.68;7.75;;;8.50;99.90;;;;;;4994549;28;20038;-65
2023/11/08 03:02:45;;;;;;;15.30;7.07;;;8.50;99.90;;;;;;4993320;28;20039;-64
2023/11/08 03:05:11;;;;;;;16.70;7.95;;;8.50;99.90;;;;;;4992769;28;20437;-65
2023/11/08 03:07:37;;;;;;;12.80;7.47;;;8.50;99.90;;;;;;4988540;28;20038;-65
2023/11/08 03:10:04;;;;;;;16.98;8.00;;;8.40;99.90;;;;;;4963178;28;20070;-65
2023/11/08 03:12:30;;;;;;;15.50;8.75;;;8.40;99.90;;;;;;4996958;28;20125;-65
2023/11/08 03:14:55;;;;;;;16.70;9.00;;;8.40;99.90;;;;;;4978284;28;20581;-66
2023/11/08 03:17:21;;;;;;;15.45;8.45;;;8.40;99.90;;;;;;4976777;28;20072;-65
2023/11/08 03:19:47;;;;;;;15.90;8.27;;;8.40;99.90;;;;;;4997658;28;20062;-65
2023/11/08 03:22:13;;;;;;;16.63;8.52;;;8.40;99.90;;;;;;4996621;28;20066;-65
2023/11/08 03:24:39;;;;;;;14.30;9.10;;;8.40;99.90;;;;;;4977084;28;20113;-66
2023/11/08 03:27:05;;;;;;;16.05;9.40;;;8.40;99.90;;;;;;4976829;28;20093;-66
2023/11/08 03:29:31;;;;;;;15.63;8.90;;;8.50;99.90;;;;;;4991323;28;20043;-66
2023/11/08 03:31:57;;;;;;;14.13;9.30;;;8.40;99.90;;;;;;4993617;28;20069;-65
2023/11/08 03:34:27;;;;;;;14.40;8.80;;;8.40;99.90;;;;;;4994075;28;20058;-66
2023/11/08 03:36:55;;;;;;;14.65;9.20;;;8.40;99.90;;;;;;4977868;28;20042;-65
2023/11/08 03:39:21;;;;;;;15.32;9.40;;;8.40;99.90;;;;;;4974852;28;20438;-66
2023/11/08 03:41:47;;;;;;;19.00;9.63;;;8.40;99.90;;;;;;4990739;28;20034;-66
2023/11/08 03:44:13;;;;;;;19.08;9.90;;;8.40;99.90;;;;;;4983150;28;20038;-66
2023/11/08 03:46:38;;;;;;;16.55;8.80;;;8.40;99.90;;;;;;4989836;28;20026;-65
2023/11/08 03:49:04;;;;;;;18.02;9.32;;;8.40;99.90;;;;;;4990531;28;20035;-65
2023/11/08 03:51:30;;;;;;;13.98;8.80;;;8.40;99.90;;;;;;4986736;28;20037;-65
2023/11/08 03:53:55;;;;;;;14.32;8.45;;;8.40;99.90;;;;;;4983834;28;20056;-65
2023/11/08 03:56:21;;;;;;;16.52;8.85;;;8.30;99.90;;;;;;4955966;28;20165;-65
2023/11/08 03:58:47;;;;;;;17.60;9.30;;;8.30;99.90;;;;;;4990723;28;20117;-65
2023/11/08 04:01:12;;;;;;;17.85;8.35;;;8.30;99.90;;;;;;4982661;28;20033;-65
2023/11/08 04:03:41;;;;;;;13.68;8.18;;;8.30;99.90;;;;;;4989988;28;20085;-65
2023/11/08 04:06:08;;;;;;;14.27;7.88;;;8.30;99.90;;;;;;4989382;28;20561;-65
2023/11/08 04:08:34;;;;;;;12.55;8.23;;;8.30;99.90;;;;;;4989157;28;20038;-65
2023/11/08 04:11:01;;;;;;;14.75;8.27;;;8.30;99.90;;;;;;4985053;28;20034;-65
2023/11/08 04:13:27;;;;;;;13.02;7.93;;;8.30;99.90;;;;;;4990008;28;20035;-65
2023/11/08 04:15:52;;;;;;;19.17;8.73;;;8.30;99.90;;;;;;4990269;28;20069;-65
2023/11/08 04:18:18;;;;;;;15.20;8.77;;;8.30;99.90;;;;;;4988135;28;20096;-65
2023/11/08 04:20:43;;;;;;;15.20;9.20;;;8.30;99.90;;;;;;4990052;28;20038;-65
2023/11/08 04:23:09;;;;;;;13.45;8.98;;;8.30;99.90;;;;;;4989592;28;20121;-65
2023/11/08 04:25:37;;;;;;;20.15;9.75;;;8.30;99.90;;;;;;4983713;28;20112;-65
2023/11/08 04:28:02;;;;;;;19.30;9.85;;;8.30;99.90;;;;;;4968062;28;20088;-65
2023/11/08 04:30:28;;;;;;;20.00;10.88;;;8.30;99.90;;;;;;4989780;28;20501;-65
2023/11/08 04:32:53;;;;;;;17.90;11.00;;;8.20;99.90;;;;;;4990201;28;20415;-64
2023/11/08 04:35:20;;;;;;;17.58;10.50;;;8.30;99.90;;;;;;4989351;28;20045;-64
2023/11/08 04:37:45;;;;;;;16.45;10.45;;;8.20;99.90;;;;;;4987839;28;20047;-65
2023/11/08 04:40:14;;;;;;;18.90;10.35;;;8.20;99.90;;;;;;4988097;28;20085;-65
2023/11/08 04:42:40;;;;;;;21.17;11.48;;;8.20;99.90;;;;;;4989575;28;20038;-65
2023/11/08 04:45:06;;;;;;;16.63;11.52;;;8.20;99.90;;;;;;4990122;28;20036;-65
2023/11/08 04:47:31;;;;;;;20.55;11.55;;;8.20;99.90;;;;;;4989170;28;20045;-64
2023/11/08 04:49:57;;;;;;;19.90;12.68;;;8.20;99.90;;;;;;4972369;28;20497;-65
2023/11/08 04:52:22;;;;;;;22.58;12.13;;;8.30;99.90;;;;;;4989148;28;20062;-65
2023/11/08 04:54:50;;;;;;;19.00;13.27;;;8.20;99.90;;;;;;4988831;28;20034;-65
2023/11/08 04:57:18;;;;;;;18.95;13.25;;;8.30;99.90;;;;;;4972480;28;20061;-65
2023/11/08 04:59:45;;;;;;;26.80;15.27;;;8.30;99.90;;;;;;4969812;28;20050;-64
2023/11/08 05:02:11;;;;;;;24.90;15.05;;;8.30;99.90;;;;;;4984076;28;20065;-65
2023/11/08 05:04:40;;;;;;;28.17;16.45;;;8.30;99.90;;;;;;4984459;28;20043;-65
2023/11/08 05:07:09;;;;;;;26.00;15.88;;;8.40;99.90;;;;;;4975827;28;20565;-65
2023/11/08 05:09:41;;;;;;;31.50;16.85;;;8.40;99.90;;;;;;4989488;28;20057;-64
2023/11/08 05:12:07;;;;;;;29.40;15.77;;;8.40;99.90;;;;;;4993529;28;20049;-65
2023/11/08 05:14:33;;;;;;;28.45;17.15;;;8.40;99.90;;;;;;4991994;28;20038;-65
2023/11/08 05:17:04;;;;;;;27.02;17.33;;;8.50;99.90;;;;;;4988030;28;20034;-65
2023/11/08 05:19:29;;;;;;;29.95;18.20;;;8.50;99.90;;;;;;4992001;28;20038;-65
2023/11/08 05:21:55;;;;;;;34.47;18.15;;;8.50;99.90;;;;;;4985955;28;20039;-65
2023/11/08 05:24:22;;;;;;;31.70;17.98;;;8.50;99.90;;;;;;4989029;28;20057;-65
2023/11/08 05:26:48;;;;;;;34.00;18.98;;;8.60;99.90;;;;;;4992595;28;20077;-65
2023/11/08 05:29:14;;;;;;;30.52;18.95;;;8.60;99.90;;;;;;4992396;28;20054;-65
2023/11/08 05:31:39;;;;;;;33.50;18.95;;;8.60;99.90;;;;;;4991699;28;20034;-65
2023/11/08 05:34:05;;;;;;;35.80;19.50;;;8.60;99.90;;;;;;4991839;28;20158;-65
2023/11/08 05:36:31;;;;;;;29.85;18.45;;;8.60;99.90;;;;;;4992374;28;20050;-65
2023/11/08 05:38:57;;;;;;;31.88;18.98;;;8.60;99.90;;;;;;4992130;28;20034;-65
2023/11/08 05:41:23;;;;;;;35.50;19.60;;;9.30;99.90;;;;;;4990414;28;20038;-65
2023/11/08 05:43:51;;;;;;;36.40;19.75;;;8.60;99.90;;;;;;4994241;28;20038;-65
2023/11/08 05:46:16;;;;;;;32.45;19.13;;;8.70;99.90;;;;;;4996186;28;20049;-65
2023/11/08 05:48:42;;;;;;;35.60;19.60;;;8.70;99.90;;;;;;4975130;28;20105;-65
2023/11/08 05:51:08;;;;;;;34.78;20.80;;;8.70;99.90;;;;;;4988297;28;20037;-64
2023/11/08 05:53:34;;;;;;;33.47;20.13;;;8.70;99.90;;;;;;4991729;28;20076;-64
2023/11/08 05:55:59;;;;;;;37.53;20.30;;;8.80;99.90;;;;;;4991810;28;20088;-65
2023/11/08 05:58:25;;;;;;;33.88;20.88;;;8.70;99.90;;;;;;4992831;28;20307;-65
2023/11/08 06:00:51;;;;;;;35.00;20.17;;;8.70;99.90;;;;;;4974796;28;20078;-65
2023/11/08 06:03:17;;;;;;;33.50;20.20;;;8.70;99.90;;;;;;4991684;28;20038;-64
2023/11/08 06:05:42;;;;;;;38.58;20.48;;;8.80;99.90;;;;;;4967694;28;20172;-65
2023/11/08 06:08:09;;;;;;;38.60;20.67;;;8.80;99.90;;;;;;4989819;28;20111;-64
2023/11/08 06:10:35;;;;;;;35.17;19.98;;;8.80;99.90;;;;;;4991424;28;20553;-65
2023/11/08 06:13:02;;;;;;;33.00;20.30;;;8.80;99.90;;;;;;4990432;28;20038;-65
2023/11/08 06:15:29;;;;;;;35.58;19.50;;;8.80;99.90;;;;;;4967060;28;20057;-65
2023/11/08 06:17:55;;;;;;;34.90;19.02;;;8.80;99.90;;;;;;4979820;28;20053;-64
2023/11/08 06:20:21;;;;;;;32.33;18.95;;;8.80;99.90;;;;;;4991061;28;20042;-65
2023/11/08 06:22:48;;;;;;;33.13;19.17;;;8.80;99.90;;;;;;4988732;28;20046;-65
2023/11/08 06:25:15;;;;;;;37.83;20.50;;;8.90;99.90;;;;;;4986275;28;20048;-65
2023/11/08 06:27:40;;;;;;;33.75;20.65;;;8.90;99.90;;;;;;4983753;28;20429;-64
2023/11/08 06:30:07;;;;;;;37.78;20.48;;;8.90;99.90;;;;;;4991797;28;20126;-65
2023/11/08 06:32:33;;;;;;;37.67;19.20;;;8.90;99.90;;;;;;4991476;28;20038;-64
2023/11/08 06:35:00;;;;;;;33.35;19.27;;;8.80;99.90;;;;;;4991435;28;20534;-64
2023/11/08 06:37:29;;;;;;;37.92;20.05;;;8.90;99.90;;;;;;4991539;28;20046;-65
2023/11/08 06:39:55;;;;;;;36.60;19.52;;;8.90;99.90;;;;;;4991777;28;20042;-64
2023/11/08 06:42:21;;;;;;;32.75;20.30;;;8.90;99.90;;;;;;4991767;28;20133;-64
2023/11/08 06:44:47;;;;;;;39.00;20.83;;;8.90;99.90;;;;;;4982851;28;20088;-64
2023/11/08 06:47:13;;;;;;;40.38;19.55;;;8.90;99.90;;;;;;4991878;28;20061;-65
2023/11/08 06:49:39;;;;;;;32.75;19.55;;;8.90;99.90;;;;;;4984674;28;20101;-65
2023/11/08 06:52:05;;;;;;;38.90;20.55;;;8.90;99.90;;;;;;4990369;28;20400;-65
2023/11/08 06:54:32;;;;;;;41.35;20.25;;;8.90;99.90;;;;;;4994531;28;20410;-65
2023/11/08 06:56:58;;;;;;;34.03;19.48;;;8.60;99.90;;;;;;5005030;28;20073;-65
2023/11/08 06:59:23;;;;;;;37.20;19.92;;;8.90;99.90;;;;;;4978876;28;20469;-64
2023/11/08 07:01:49;;;;;;;32.30;19.60;;;8.90;99.90;;;;;;4994386;28;20049;-65
2023/11/08 07:04:14;;;;;;;34.45;18.92;;;8.90;99.90;;;;;;4998679;28;20085;-64
2023/11/08 07:06:40;;;;;;;30.45;18.50;;;8.90;99.90;;;;;;4993110;28;20504;-65
2023/11/08 07:09:07;;;;;;;37.88;20.20;;;8.90;99.90;;;;;;5007312;28;20073;-64
2023/11/08 07:11:33;;;;;;;34.72;19.98;;;8.90;99.90;;;;;;4989949;28;20450;-65
2023/11/08 07:13:58;;;;;;;31.42;19.55;;;8.90;99.90;;;;;;4996692;28;20121;-65
2023/11/08 07:16:25;;;;;;;41.17;19.98;;;8.90;99.90;;;;;;4990590;28;20085;-64
2023/11/08 07:18:51;;;;;;;39.78;19.80;;;8.90;99.90;;;;;;4991011;28;20081;-65
2023/11/08 07:21:20;;;;;;;38.30;19.58;;;8.90;99.90;;;;;;4991127;28;20042;-65
2023/11/08 07:23:46;;;;;;;37.15;19.08;;;8.90;99.90;;;;;;4988400;28;20428;-64
2023/11/08 07:26:15;;;;;;;39.45;19.05;;;8.90;99.90;;;;;;4986769;28;20031;-65
2023/11/08 07:28:43;;;;;;;30.23;18.38;;;8.90;99.90;;;;;;4989912;28;20038;-65
2023/11/08 07:31:09;;;;;;;31.15;18.25;;;8.90;99.90;;;;;;4990061;28;20042;-65
2023/11/08 07:33:38;;;;;;;30.27;17.13;;;8.90;99.90;;;;;;4991024;28;20161;-65
2023/11/08 07:36:04;;;;;;;27.92;17.13;;;8.90;99.90;;;;;;5000661;28;20201;-65
2023/11/08 07:38:30;;;;;;;30.52;17.52;;;8.90;99.90;;;;;;4990830;28;20132;-65
2023/11/08 07:40:58;;;;;;;30.98;16.85;;;8.90;99.90;;;;;;4990636;28;20038;-64
2023/11/08 07:43:24;;;;;;;34.13;17.23;;;8.90;99.90;;;;;;4990757;28;20046;-65
2023/11/08 07:45:50;;;;;;;26.27;16.73;;;8.90;99.90;;;;;;4989889;28;20054;-65
2023/11/08 07:48:15;;;;;;;27.38;17.40;;;8.90;99.90;;;;;;4987811;28;20040;-65
2023/11/08 07:50:41;;;;;;;26.63;16.08;;;8.90;99.90;;;;;;4990104;28;20521;-65
2023/11/08 07:53:07;;;;;;;26.92;15.57;;;8.90;99.90;;;;;;4990858;28;20074;-64
2023/11/08 07:55:33;;;;;;;27.92;16.27;;;8.90;99.90;;;;;;4988432;28;20121;-65
2023/11/08 07:58:00;;;;;;;29.08;15.23;;;8.90;99.90;;;;;;4986222;28;20450;-66
2023/11/08 08:00:26;;;;;;;24.38;15.30;;;8.90;99.90;;;;;;4983083;28;20437;-65
2023/11/08 08:02:53;;;;;;;23.85;14.73;;;8.90;99.90;;;;;;4972824;28;20078;-66
2023/11/08 08:05:18;;;;;;;28.08;16.63;;;8.90;99.90;;;;;;4986290;28;20045;-66
2023/11/08 08:07:44;;;;;;;25.05;16.13;;;9.00;99.90;;;;;;4986391;28;20116;-66
2023/11/08 08:10:12;;;;;;;27.40;15.13;;;9.00;99.90;;;;;;4990218;28;20084;-65
2023/11/08 08:12:38;;;;;;;22.73;13.82;;;9.00;99.90;;;;;;4989755;28;20490;-65
2023/11/08 08:15:05;;;;;;;23.48;15.05;;;9.00;99.90;;;;;;4989702;28;20501;-66
2023/11/08 08:17:32;;;;;;;24.33;15.75;;;9.10;99.90;;;;;;4990276;28;20481;-66
2023/11/08 08:19:57;;;;;;;24.17;15.63;;;9.10;99.90;;;;;;4983622;28;20081;-65
2023/11/08 08:22:23;;;;;;;26.65;15.45;;;9.10;99.90;;;;;;4989554;28;20046;-66
2023/11/08 08:24:49;;;;;;;24.77;15.13;;;9.10;99.90;;;;;;4990031;28;20049;-65
2023/11/08 08:27:15;;;;;;;23.27;14.75;;;9.10;99.90;;;;;;4989731;28;20034;-65
2023/11/08 08:29:41;;;;;;;25.33;14.60;;;9.10;99.90;;;;;;4990262;28;20510;-66
2023/11/08 08:32:07;;;;;;;24.80;14.75;;;9.10;99.90;;;;;;4984389;28;20163;-66
2023/11/08 08:34:33;;;;;;;24.52;14.35;;;9.10;99.90;;;;;;4972703;28;20121;-65
2023/11/08 08:36:58;;;;;;;25.58;14.02;;;9.10;99.90;;;;;;4990062;28;20113;-65
2023/11/08 08:39:27;;;;;;;27.08;14.73;;;9.10;99.90;;;;;;4990517;28;20050;-65
2023/11/08 08:41:53;;;;;;;18.48;13.82;;;9.20;99.90;;;;;;4975951;28;20045;-65
2023/11/08 08:44:19;;;;;;;19.40;13.30;;;9.10;99.90;;;;;;4992534;28;20057;-66
2023/11/08 08:46:45;;;;;;;24.00;13.93;;;9.10;99.90;;;;;;4993454;28;20030;-65
2023/11/08 08:49:12;;;;;;;22.33;13.60;;;9.10;99.90;;;;;;4994181;28;20041;-65
2023/11/08 08:51:38;;;;;;;22.70;13.20;;;9.10;99.90;;;;;;4993994;28;20168;-65
2023/11/08 08:54:06;;;;;;;23.13;13.48;;;9.00;99.90;;;;;;4993508;28;20050;-66
2023/11/08 08:56:36;;;;;;;20.00;12.32;;;9.00;99.90;;;;;;4975995;28;20050;-66
2023/11/08 08:59:02;;;;;;;19.52;12.07;;;9.00;99.90;;;;;;4991804;28;20046;-66
2023/11/08 09:01:28;;;;;;;20.48;12.13;;;9.00;99.90;;;;;;4993926;28;20050;-66
2023/11/08 09:03:54;;;;;;;19.88;12.32;;;9.00;99.90;;;;;;4993672;28;20061;-66
2023/11/08 09:06:20;;;;;;;22.58;11.65;;;9.00;99.90;;;;;;4987044;28;20047;-65
2023/11/08 09:08:46;;;;;;;18.85;11.10;;;9.00;99.90;;;;;;4994104;28;20042;-66
2023/11/08 09:11:12;;;;;;;22.25;10.73;;;9.00;99.90;;;;;;4993238;28;20472;-66
2023/11/08 09:13:37;;;;;;;15.57;9.88;;;9.10;99.90;;;;;;4994008;28;20069;-66
2023/11/08 09:16:07;;;;;;;15.98;10.07;;;9.00;99.90;;;;;;4992446;28;20057;-65
2023/11/08 09:18:36;;;;;;;22.27;10.07;;;9.10;99.90;;;;;;4992146;28;20050;-66
2023/11/08 09:21:01;;;;;;;17.25;9.70;;;9.10;99.90;;;;;;4993547;28;20039;-65
2023/11/08 09:23:28;;;;;;;16.70;9.15;;;9.20;99.90;;;;;;4993595;28;20523;-65
2023/11/08 09:25:58;;;;;;;16.55;8.68;;;9.20;99.90;;;;;;4975450;28;20489;-66
2023/11/08 09:28:24;;;;;;;15.43;8.32;;;9.20;99.90;;;;;;4975512;28;20051;-65
2023/11/08 09:30:51;;;;;;;15.82;8.38;;;9.20;99.90;;;;;;4993271;28;20397;-65
2023/11/08 09:33:17;;;;;;;10.38;7.68;;;9.20;99.90;;;;;;4993155;28;20038;-65
2023/11/08 09:35:42;;;;;;;13.80;7.88;;;9.20;99.90;;;;;;4989820;28;20091;-65
2023/11/08 09:38:08;;;;;;;15.05;7.88;;;9.20;99.90;;;;;;4974644;28;20041;-65
2023/11/08 09:40:33;;;;;;;14.48;7.95;;;9.20;99.90;;;;;;4992923;28;20545;-66
2023/11/08 09:43:00;;;;;;;14.70;7.15;;;9.30;99.90;;;;;;4992759;28;20096;-66
2023/11/08 09:45:30;;;;;;;9.73;6.57;;;9.30;99.90;;;;;;4985833;28;20054;-65
2023/11/08 09:47:56;;;;;;;11.60;6.50;;;9.30;99.90;;;;;;4990832;28;20151;-65
2023/11/08 09:50:23;;;;;;;13.93;7.18;;;9.40;99.90;;;;;;4992062;28;20628;-66
2023/11/08 09:52:49;;;;;;;15.18;5.57;;;9.40;99.90;;;;;;4992087;28;20050;-65
2023/11/08 09:55:15;;;;;;;12.35;5.90;;;9.50;99.90;;;;;;4991992;28;20049;-65
2023/11/08 09:57:42;;;;;;;11.73;5.80;;;9.50;99.90;;;;;;4992760;28;20030;-65
2023/11/08 10:00:09;;;;;;;11.23;5.60;;;9.50;99.90;;;;;;4992716;28;20041;-65
2023/11/08 10:02:37;;;;;;;11.45;5.50;;;9.60;99.90;;;;;;4991973;28;20042;-65
2023/11/08 10:05:05;;;;;;;12.85;5.03;;;9.60;99.90;;;;;;4991309;28;20112;-65
2023/11/08 10:07:32;;;;;;;10.63;4.88;;;9.60;99.90;;;;;;4985928;28;20482;-65
2023/11/08 10:09:58;;;;;;;7.43;4.50;;;9.60;99.90;;;;;;4986362;28;20035;-65
2023/11/08 10:12:24;;;;;;;10.20;4.47;;;9.60;99.90;;;;;;4979889;28;20047;-65
2023/11/08 10:14:59;;;;;;;8.77;4.68;;;9.60;99.90;;;;;;4985414;28;20117;-64
2023/11/08 10:17:39;;;;;;;7.88;4.43;;;9.60;99.90;;;;;;4967520;28;20851;-64
2023/11/08 10:20:08;;;;;;;8.13;4.20;;;9.60;99.90;;;;;;4984673;28;20045;-65
2023/11/08 10:22:35;;;;;;;8.00;3.95;;;9.30;99.90;;;;;;4967194;28;20058;-65
2023/11/08 10:25:03;;;;;;;9.07;4.00;;;9.40;99.90;;;;;;4977673;28;20600;-65
2023/11/08 10:27:30;;;;;;;11.15;4.15;;;9.60;99.90;;;;;;4975235;28;20641;-65
2023/11/08 10:30:16;;;;;;;6.63;3.78;;;9.60;99.90;;;;;;4984659;28;20038;-65
2023/11/08 10:32:43;;;;;;;9.68;3.47;;;9.70;99.90;;;;;;4966434;28;20050;-65
2023/11/08 10:35:20;;;;;;;8.55;3.45;;;9.70;99.90;;;;;;4967316;28;20050;-65
2023/11/08 10:37:48;;;;;;;10.45;4.00;;;9.80;99.90;;;;;;4981433;28;20096;-65
2023/11/08 10:40:14;;;;;;;7.05;3.40;;;9.80;99.90;;;;;;4985311;28;20035;-65
2023/11/08 10:42:41;;;;;;;8.25;3.33;;;9.90;99.90;;;;;;4984435;28;20546;-65
2023/11/08 10:45:08;;;;;;;7.18;3.40;;;9.90;99.90;;;;;;4967948;28;20042;-65
2023/11/08 10:47:37;;;;;;;8.82;3.47;;;10.00;99.90;;;;;;4985263;28;20633;-65
2023/11/08 10:50:05;;;;;;;9.75;3.60;;;10.00;99.90;;;;;;4985947;28;20042;-65
2023/11/08 10:52:33;;;;;;;6.25;3.35;;;10.00;99.90;;;;;;4984058;28;20572;-66
2023/11/08 10:54:59;;;;;;;7.78;3.60;;;10.10;99.90;;;;;;4983752;28;20045;-65
2023/11/08 10:57:29;;;;;;;5.97;3.05;;;10.10;99.90;;;;;;4966339;28;20049;-65
2023/11/08 11:00:00;;;;;;;8.90;3.08;;;10.10;99.90;;;;;;4984629;28;20077;-65
2023/11/08 11:02:31;;;;;;;14.32;3.47;;;10.10;99.90;;;;;;4984852;28;20042;-65
2023/11/08 11:05:03;;;;;;;5.78;2.95;;;10.80;99.90;;;;;;4985201;28;20061;-65
2023/11/08 11:07:30;;;;;;;7.32;3.05;;;10.20;99.90;;;;;;4966851;28;20610;-65
2023/11/08 11:09:56;;;;;;;7.55;3.10;;;10.20;99.90;;;;;;4967004;28;20061;-65
2023/11/08 11:12:37;;;;;;;9.48;3.17;;;10.20;99.90;;;;;;4969785;28;20058;-64
2023/11/08 11:15:09;;;;;;;7.75;2.70;;;10.20;99.90;;;;;;4964513;28;20129;-65
2023/11/08 11:17:37;;;;;;;;;;;10.20;99.90;;;;;;4985200;28;20046;-65
2023/11/08 11:20:10;;;;;;;10.38;2.75;;;10.20;99.90;;;;;;4967831;28;19961;-65
2023/11/08 11:22:39;;;;;;;9.98;2.90;;;10.10;99.90;;;;;;4982076;28;20078;-65
2023/11/08 11:25:05;;;;;;;11.38;3.00;;;10.10;99.90;;;;;;4983781;28;20064;-65
2023/11/08 11:27:33;;;;;;;4.85;2.33;;;10.10;99.90;;;;;;4966629;28;20105;-65
2023/11/08 11:30:32;;;;;;;8.52;2.70;;;10.10;99.90;;;;;;4967332;28;20041;-64
2023/11/08 11:32:58;;;;;;;7.50;2.95;;;10.10;99.90;;;;;;4935157;28;20050;-65
2023/11/08 11:35:30;;;;;;;8.68;3.10;;;10.00;99.90;;;;;;4984559;28;20484;-64
2023/11/08 11:38:07;;;;;;;10.82;3.20;;;10.00;99.90;;;;;;4977707;28;20042;-64
2023/11/08 11:40:45;;;;;;;7.05;3.30;;;10.00;99.90;;;;;;4964682;28;20050;-64
2023/11/08 11:43:32;;;;;;;6.05;3.30;;;10.00;99.90;;;;;;4983245;28;20034;-65
2023/11/08 11:45:59;;;;;;;7.60;3.60;;;10.10;99.90;;;;;;4981583;28;20038;-65
2023/11/08 11:48:31;;;;;;;8.00;3.45;;;10.10;99.90;;;;;;4984013;28;20043;-65
2023/11/08 11:50:56;;;;;;;8.18;3.53;;;10.10;99.90;;;;;;4982234;28;20470;-65
2023/11/08 11:53:24;;;;;;;10.30;4.07;;;10.10;99.90;;;;;;4972706;28;20046;-65
2023/11/08 11:55:55;;;;;;;11.10;3.92;;;10.20;99.90;;;;;;4951110;28;20041;-65
2023/11/08 11:58:21;;;;;;;11.68;3.63;;;10.30;99.90;;;;;;4982736;28;20053;-65
2023/11/08 12:00:46;;;;;;;9.45;4.05;;;10.30;99.90;;;;;;4983562;28;20046;-65
2023/11/08 12:03:12;;;;;;;8.88;3.60;;;10.30;99.90;;;;;;4990357;28;20045;-64
2023/11/08 12:05:39;;;;;;;9.30;4.00;;;10.30;99.90;;;;;;4995550;28;20042;-64
2023/11/08 12:08:05;;;;;;;8.65;4.05;;;10.40;99.90;;;;;;4979286;28;20039;-64
2023/11/08 12:10:31;;;;;;;9.98;3.47;;;10.40;99.90;;;;;;4983281;28;20522;-65
2023/11/08 12:12:57;;;;;;;10.85;3.88;;;10.50;99.90;;;;;;4983395;28;20030;-65
2023/11/08 12:15:23;;;;;;;12.98;3.30;;;10.60;99.90;;;;;;4967314;28;20055;-65
2023/11/08 12:17:53;;;;;;;9.20;3.10;;;10.60;99.90;;;;;;5001461;28;20133;-65
2023/11/08 12:20:21;;;;;;;10.25;3.15;;;10.60;99.90;;;;;;4965532;28;20572;-65
2023/11/08 12:22:50;;;;;;;8.35;3.10;;;10.70;99.90;;;;;;4972882;28;20042;-65
2023/11/08 12:25:20;;;;;;;8.48;3.10;;;10.80;99.90;;;;;;4966077;28;20042;-65
2023/11/08 12:27:50;;;;;;;13.80;3.45;;;10.90;99.90;;;;;;4979726;28;20196;-65
2023/11/08 12:30:16;;;;;;;11.40;3.53;;;10.90;99.90;;;;;;4969207;28;20065;-65
2023/11/08 12:32:42;;;;;;;10.68;3.35;;;11.00;99.90;;;;;;4987581;28;20919;-65
2023/11/08 12:35:09;;;;;;;9.85;3.28;;;10.70;99.90;;;;;;4987750;28;20070;-65
2023/11/08 12:37:36;;;;;;;12.70;3.50;;;10.90;99.90;;;;;;4989103;28;20389;-65
2023/11/08 12:40:22;;;;;;;7.95;2.92;;;10.90;99.90;;;;;;4993731;28;20387;-65
2023/11/08 12:42:48;;;;;;;8.20;3.17;;;10.80;99.90;;;;;;4980396;28;20042;-65